Time;durP1;ratioP1;P1;durP2;ratioP2;P2;SDS_P1;SDS_P2;PMS_P1;PMS_P2;Temp;Humidity;BMP_temperature;BMP_pressure;BME280_temperature;BME280_humidity;BME280_pressure;Samples;Min_cycle;Max_cycle;Signal;HPM_P1;HPM_P2
2021/03/20 00:01:44;;;;;;;22.73;12.20;;;-3.00;99.80;;;;;;5090550;28;20527;-64
2021/03/20 00:04:11;;;;;;;24.05;11.38;;;-3.10;99.90;;;;;;5086616;28;20478;-63
2021/03/20 00:06:41;;;;;;;17.65;11.38;;;-3.10;99.90;;;;;;5089966;28;21004;-65
2021/03/20 00:09:11;;;;;;;20.92;11.63;;;-3.00;99.90;;;;;;5088912;28;20213;-64
2021/03/20 00:11:41;;;;;;;22.25;11.90;;;-2.40;99.90;;;;;;5092488;28;20226;-63
2021/03/20 00:14:09;;;;;;;24.15;11.20;;;-3.10;99.90;;;;;;5086094;28;20431;-64
2021/03/20 00:16:36;;;;;;;20.75;12.52;;;-3.10;99.90;;;;;;5094809;28;20207;-65
2021/03/20 00:19:03;;;;;;;22.55;13.50;;;-3.20;99.90;;;;;;5090636;28;20202;-63
2021/03/20 00:21:30;;;;;;;27.70;11.55;;;-3.20;99.90;;;;;;5088557;28;20206;-63
2021/03/20 00:23:56;;;;;;;24.42;12.43;;;-2.90;99.90;;;;;;5096119;28;20539;-63
2021/03/20 00:26:23;;;;;;;22.67;12.98;;;-3.40;99.90;;;;;;5095387;28;20222;-64
2021/03/20 00:28:52;;;;;;;22.85;12.40;;;-3.40;99.90;;;;;;5085580;28;20222;-64
2021/03/20 00:31:19;;;;;;;22.80;12.82;;;-3.40;99.90;;;;;;5090247;28;20232;-63
2021/03/20 00:33:46;;;;;;;22.75;12.35;;;-3.40;99.90;;;;;;5090624;28;20265;-64
2021/03/20 00:36:14;;;;;;;23.13;12.30;;;-3.30;99.90;;;;;;5082692;28;20223;-64
2021/03/20 00:38:45;;;;;;;21.23;12.40;;;-3.30;99.90;;;;;;5088120;28;20504;-64
2021/03/20 00:41:12;;;;;;;21.45;11.10;;;-3.20;99.90;;;;;;5094077;28;20207;-64
2021/03/20 00:43:39;;;;;;;23.52;13.30;;;-3.00;99.90;;;;;;5093639;28;20509;-63
2021/03/20 00:46:09;;;;;;;16.15;11.00;;;-2.30;99.90;;;;;;5094009;28;20214;-64
2021/03/20 00:48:39;;;;;;;24.83;12.45;;;-3.30;99.90;;;;;;5085319;28;20210;-64
2021/03/20 00:51:07;;;;;;;20.88;11.88;;;-2.50;99.90;;;;;;5091035;28;20231;-63
2021/03/20 00:53:34;;;;;;;22.33;11.88;;;-3.60;99.90;;;;;;5092160;28;20206;-64
2021/03/20 00:56:00;;;;;;;19.70;13.80;;;-3.60;99.90;;;;;;5091699;28;20211;-63
2021/03/20 00:58:34;;;;;;;20.15;11.90;;;-3.60;99.90;;;;;;5090363;28;20224;-63
2021/03/20 01:01:06;;;;;;;24.88;12.77;;;-3.60;99.90;;;;;;5088071;28;20206;-64
2021/03/20 01:03:33;;;;;;;20.10;12.60;;;-3.60;99.90;;;;;;5092924;28;20210;-63
2021/03/20 01:06:00;;;;;;;20.10;12.32;;;-3.50;99.90;;;;;;5088202;28;20337;-63
2021/03/20 01:08:26;;;;;;;18.88;11.40;;;-3.40;99.90;;;;;;5090116;28;20213;-63
2021/03/20 01:10:53;;;;;;;23.85;11.10;;;-3.30;99.90;;;;;;5090440;28;20229;-63
2021/03/20 01:13:20;;;;;;;24.20;10.77;;;-3.40;99.90;;;;;;5090577;28;20207;-63
2021/03/20 01:15:47;;;;;;;19.77;12.30;;;-2.80;99.90;;;;;;5091538;28;20458;-62
2021/03/20 01:18:14;;;;;;;15.60;11.25;;;-3.60;99.90;;;;;;5090801;28;20202;-62
2021/03/20 01:20:42;;;;;;;14.77;11.18;;;-3.60;99.90;;;;;;5089232;28;20248;-62
2021/03/20 01:23:08;;;;;;;16.40;12.15;;;-3.70;99.90;;;;;;5092236;28;20202;-62
2021/03/20 01:25:35;;;;;;;16.17;10.90;;;-3.80;99.90;;;;;;5089663;28;20230;-63
2021/03/20 01:28:03;;;;;;;21.75;11.68;;;-3.90;99.90;;;;;;5094771;28;20217;-61
2021/03/20 01:30:34;;;;;;;20.27;11.43;;;-3.70;99.90;;;;;;5089328;28;20241;-63
2021/03/20 01:33:01;;;;;;;17.92;11.85;;;-3.80;99.90;;;;;;5089084;28;20227;-61
2021/03/20 01:35:28;;;;;;;21.42;13.05;;;-3.80;99.90;;;;;;5095651;28;20238;-63
2021/03/20 01:37:55;;;;;;;18.10;12.65;;;-3.80;99.90;;;;;;5086464;28;20531;-63
2021/03/20 01:40:25;;;;;;;17.42;9.85;;;-3.90;99.90;;;;;;5091827;28;20198;-62
2021/03/20 01:42:53;;;;;;;15.55;10.70;;;-2.90;99.90;;;;;;5088475;28;20518;-61
2021/03/20 01:45:25;;;;;;;18.33;10.63;;;-3.90;99.90;;;;;;5093274;28;20206;-63
2021/03/20 01:48:04;;;;;;;15.05;10.68;;;-4.00;99.90;;;;;;5091572;28;20547;-62
2021/03/20 01:50:37;;;;;;;19.77;10.75;;;-4.00;99.90;;;;;;5084374;28;20240;-61
2021/03/20 01:53:25;;;;;;;17.25;9.63;;;-4.10;99.90;;;;;;5088774;28;20209;-61
2021/03/20 01:55:51;;;;;;;16.50;10.18;;;-4.10;99.90;;;;;;5089858;28;20412;-61
2021/03/20 01:58:18;;;;;;;19.00;10.82;;;-4.10;99.90;;;;;;5092966;28;20206;-62
2021/03/20 02:00:45;;;;;;;15.27;10.50;;;-4.10;99.90;;;;;;5089600;28;20206;-60
2021/03/20 02:03:16;;;;;;;16.77;10.23;;;-4.10;99.90;;;;;;5092501;28;20202;-61
2021/03/20 02:05:44;;;;;;;22.95;12.48;;;-4.10;99.90;;;;;;5088494;28;20214;-61
2021/03/20 02:08:13;;;;;;;21.48;11.55;;;-4.20;99.90;;;;;;5086494;28;21024;-62
2021/03/20 02:10:43;;;;;;;20.30;10.35;;;-4.10;99.90;;;;;;5091765;28;20236;-61
2021/03/20 02:13:31;;;;;;;16.25;10.13;;;-4.10;99.90;;;;;;5088772;28;20202;-62
2021/03/20 02:16:03;;;;;;;15.50;9.43;;;-4.20;99.90;;;;;;5092138;28;20287;-62
2021/03/20 02:18:46;;;;;;;15.82;9.73;;;-4.20;99.90;;;;;;5094159;28;20302;-62
2021/03/20 02:21:33;;;;;;;15.52;9.65;;;-4.30;99.90;;;;;;5092847;28;20245;-63
2021/03/20 02:24:11;;;;;;;12.90;9.40;;;-4.30;99.90;;;;;;5090332;28;20512;-62
2021/03/20 02:26:59;;;;;;;16.15;10.38;;;-4.20;99.90;;;;;;5089445;28;20226;-62
2021/03/20 02:29:38;;;;;;;12.45;9.25;;;-3.70;99.90;;;;;;5087756;28;20233;-60
2021/03/20 02:32:26;;;;;;;15.60;9.57;;;-4.30;99.90;;;;;;5096540;28;20237;-60
2021/03/20 02:35:17;;;;;;;15.07;10.05;;;-4.20;99.90;;;;;;5085532;28;20595;-60
2021/03/20 02:37:46;;;;;;;16.25;9.90;;;-4.30;99.90;;;;;;5084822;28;20205;-61
2021/03/20 02:41:00;;;;;;;11.93;8.50;;;-4.30;99.90;;;;;;5084982;28;20210;-60
2021/03/20 02:43:51;;;;;;;19.25;11.75;;;-4.40;99.90;;;;;;5085553;28;20216;-61
2021/03/20 02:46:26;;;;;;;13.98;8.27;;;-4.40;99.90;;;;;;5088274;28;20210;-61
2021/03/20 02:49:21;;;;;;;13.82;8.90;;;-4.40;99.90;;;;;;5088527;28;20218;-60
2021/03/20 02:51:53;;;;;;;13.93;9.77;;;-4.30;99.90;;;;;;5087745;28;20221;-60
2021/03/20 02:54:27;;;;;;;12.95;8.75;;;-4.30;99.90;;;;;;5094718;28;20511;-59
2021/03/20 02:57:06;;;;;;;14.27;9.50;;;-4.30;99.90;;;;;;5094571;28;20409;-60
2021/03/20 02:59:41;;;;;;;14.90;9.48;;;-3.50;99.90;;;;;;5091226;28;20213;-58
2021/03/20 03:02:11;;;;;;;10.25;7.97;;;-4.40;99.90;;;;;;5096744;28;20281;-59
2021/03/20 03:04:48;;;;;;;13.38;8.70;;;-4.40;99.90;;;;;;5095007;28;20255;-58
2021/03/20 03:07:18;;;;;;;14.05;9.55;;;-4.50;99.90;;;;;;5090451;28;20198;-61
2021/03/20 03:09:54;;;;;;;18.23;8.63;;;-4.40;99.90;;;;;;5085525;28;20205;-58
2021/03/20 03:12:54;;;;;;;18.70;10.88;;;-4.50;99.90;;;;;;5088929;28;20225;-58
2021/03/20 03:15:25;;;;;;;14.25;9.50;;;-4.50;99.90;;;;;;5091289;28;20482;-59
2021/03/20 03:18:00;;;;;;;11.85;8.48;;;-4.20;99.90;;;;;;5090605;28;20241;-58
2021/03/20 03:20:32;;;;;;;14.95;9.68;;;-4.50;99.90;;;;;;5088960;28;20501;-59
2021/03/20 03:23:07;;;;;;;14.80;9.55;;;-4.50;99.90;;;;;;5091492;28;20202;-59
2021/03/20 03:25:37;;;;;;;17.33;9.30;;;-4.30;99.90;;;;;;5106006;28;20242;-57
2021/03/20 03:28:06;;;;;;;14.55;9.45;;;-4.50;99.90;;;;;;5086254;28;20206;-58
2021/03/20 03:30:34;;;;;;;15.93;8.98;;;-4.00;99.90;;;;;;5088425;28;20272;-59
2021/03/20 03:33:23;;;;;;;13.93;8.30;;;-3.80;99.90;;;;;;5085850;28;20403;-58
2021/03/20 03:35:54;;;;;;;14.98;9.80;;;-4.50;99.90;;;;;;5092365;28;20238;-58
2021/03/20 03:38:42;;;;;;;17.38;10.50;;;-3.50;99.90;;;;;;5090108;28;20437;-58
2021/03/20 03:41:35;;;;;;;17.92;9.60;;;-4.60;99.90;;;;;;5089043;28;20233;-58
2021/03/20 03:44:04;;;;;;;14.98;9.85;;;-4.60;99.90;;;;;;5091840;28;20198;-59
2021/03/20 03:46:34;;;;;;;10.52;8.52;;;-4.70;99.90;;;;;;5090384;28;20266;-58
2021/03/20 03:49:05;;;;;;;13.80;10.18;;;-4.70;99.90;;;;;;5089081;28;20457;-57
2021/03/20 03:51:31;;;;;;;13.13;9.15;;;-4.80;99.90;;;;;;5090948;28;20225;-57
2021/03/20 03:53:59;;;;;;;12.32;8.43;;;-4.70;99.90;;;;;;5084048;28;20207;-58
2021/03/20 03:56:32;;;;;;;17.33;9.77;;;-4.70;99.90;;;;;;5090972;28;20518;-59
2021/03/20 03:58:59;;;;;;;15.70;9.82;;;-4.70;99.90;;;;;;5087717;28;20261;-58
2021/03/20 04:01:39;;;;;;;13.35;9.05;;;-4.80;99.90;;;;;;5088595;28;20199;-57
2021/03/20 04:04:33;;;;;;;17.85;10.13;;;-4.80;99.90;;;;;;5091089;28;20202;-57
2021/03/20 04:07:05;;;;;;;16.35;11.10;;;-4.80;99.90;;;;;;5090804;28;20550;-55
2021/03/20 04:09:46;;;;;;;14.68;9.90;;;-4.00;99.90;;;;;;5088526;28;20209;-58
2021/03/20 04:12:32;;;;;;;12.75;9.13;;;-4.90;99.90;;;;;;5088399;28;20234;-59
2021/03/20 04:15:14;;;;;;;18.55;11.27;;;-4.90;99.90;;;;;;5090929;28;20210;-59
2021/03/20 04:18:10;;;;;;;19.73;11.10;;;-4.90;99.90;;;;;;5093670;28;20207;-58
2021/03/20 04:20:41;;;;;;;14.32;10.45;;;-4.90;99.90;;;;;;5087122;28;20277;-58
2021/03/20 04:23:15;;;;;;;16.35;11.02;;;-4.90;99.90;;;;;;5092096;28;20195;-57
2021/03/20 04:26:00;;;;;;;20.73;11.90;;;-5.00;99.90;;;;;;5085600;28;20229;-60
2021/03/20 04:28:29;;;;;;;19.83;10.50;;;-5.00;99.90;;;;;;5092286;28;20444;-57
2021/03/20 04:31:14;;;;;;;16.92;11.25;;;-5.00;99.90;;;;;;5088968;28;20230;-57
2021/03/20 04:33:54;;;;;;;17.92;11.27;;;-5.00;99.90;;;;;;5091451;28;20206;-56
2021/03/20 04:36:27;;;;;;;16.20;10.77;;;-5.00;99.90;;;;;;5092908;28;20249;-56
2021/03/20 04:38:54;;;;;;;16.80;11.55;;;-5.10;99.90;;;;;;5096422;28;20201;-55
2021/03/20 04:41:22;;;;;;;14.95;10.43;;;-5.60;99.90;;;;;;5081379;28;20221;-57
2021/03/20 04:43:50;;;;;;;17.63;11.32;;;-4.50;99.90;;;;;;5092317;28;20521;-58
2021/03/20 04:46:22;;;;;;;18.65;11.55;;;-5.00;99.90;;;;;;5087449;28;20202;-59
2021/03/20 04:49:36;;;;;;;25.83;12.70;;;-5.10;99.90;;;;;;5095259;28;20198;-57
2021/03/20 04:52:21;;;;;;;19.25;11.10;;;-5.10;99.90;;;;;;5088620;28;20563;-58
2021/03/20 04:54:48;;;;;;;16.02;11.60;;;-5.10;99.90;;;;;;5087373;28;20206;-59
2021/03/20 04:57:28;;;;;;;18.75;11.85;;;-5.10;99.90;;;;;;5090460;28;20203;-56
2021/03/20 05:00:23;;;;;;;20.40;10.13;;;-5.00;99.90;;;;;;5094390;28;20356;-56
2021/03/20 05:03:05;;;;;;;12.93;9.73;;;-5.00;99.90;;;;;;5088973;28;20247;-55
2021/03/20 05:06:14;;;;;;;15.68;11.73;;;-4.90;99.90;;;;;;5094200;28;20404;-57
2021/03/20 05:08:44;;;;;;;21.30;13.13;;;-4.90;99.90;;;;;;5088506;28;20232;-56
2021/03/20 05:11:21;;;;;;;17.55;12.73;;;-4.80;99.90;;;;;;5080017;28;20221;-54
2021/03/20 05:14:02;;;;;;;19.67;13.27;;;-4.80;99.90;;;;;;5093702;28;20206;-56
2021/03/20 05:16:39;;;;;;;17.55;12.38;;;-4.70;99.90;;;;;;5094950;28;20476;-55
2021/03/20 05:19:07;;;;;;;20.33;13.15;;;-4.70;99.90;;;;;;5093350;28;20209;-56
2021/03/20 05:21:37;;;;;;;22.48;14.00;;;-4.40;99.90;;;;;;5091063;28;20202;-56
2021/03/20 05:24:04;;;;;;;22.50;11.50;;;-3.40;99.90;;;;;;5094682;28;20210;-57
2021/03/20 05:26:32;;;;;;;17.35;11.38;;;-4.00;99.90;;;;;;5090219;28;20237;-58
2021/03/20 05:28:59;;;;;;;25.65;11.45;;;-3.80;99.90;;;;;;5089393;28;20293;-56
2021/03/20 05:31:27;;;;;;;17.70;11.30;;;-3.60;99.90;;;;;;5087562;28;20578;-57
2021/03/20 05:33:54;;;;;;;20.77;9.63;;;-3.30;99.90;;;;;;5088938;28;20213;-56
2021/03/20 05:36:21;;;;;;;16.77;9.25;;;-3.10;99.90;;;;;;5092861;28;20240;-57
2021/03/20 05:38:48;;;;;;;12.20;9.05;;;-1.90;99.90;;;;;;5080872;28;20206;-56
2021/03/20 05:42:01;;;;;;;14.70;7.55;;;-2.30;99.90;;;;;;5089670;28;20210;-56
2021/03/20 05:44:47;;;;;;;13.95;9.18;;;-1.90;99.20;;;;;;5091543;28;20209;-56
2021/03/20 05:47:23;;;;;;;14.38;8.98;;;-1.60;97.50;;;;;;5094646;28;20209;-56
2021/03/20 05:49:53;;;;;;;18.95;9.65;;;-1.20;97.40;;;;;;5096287;28;20206;-57
2021/03/20 05:52:46;;;;;;;16.40;10.35;;;-1.00;96.10;;;;;;5097482;28;20335;-61
2021/03/20 05:55:39;;;;;;;12.02;8.65;;;-0.70;96.50;;;;;;5093659;28;20462;-57
2021/03/20 05:58:39;;;;;;;12.90;9.45;;;-0.10;94.80;;;;;;5094001;28;20481;-56
2021/03/20 06:01:19;;;;;;;16.23;8.93;;;0.60;93.80;;;;;;5087909;28;20206;-58
2021/03/20 06:04:08;;;;;;;15.38;9.77;;;1.40;92.10;;;;;;5088551;28;20210;-60
2021/03/20 06:07:02;;;;;;;19.95;11.50;;;1.40;91.80;;;;;;5095871;28;20207;-60
2021/03/20 06:09:52;;;;;;;14.32;10.98;;;2.20;90.80;;;;;;5088368;28;20272;-60
2021/03/20 06:12:24;;;;;;;17.25;10.40;;;2.50;88.80;;;;;;5089386;28;20531;-63
2021/03/20 06:15:09;;;;;;;15.60;11.52;;;2.90;88.00;;;;;;5089609;28;20196;-59
2021/03/20 06:18:20;;;;;;;15.82;11.10;;;3.90;85.20;;;;;;5097023;28;20581;-60
2021/03/20 06:20:57;;;;;;;16.10;12.25;;;4.10;83.80;;;;;;5089908;28;20213;-60
2021/03/20 06:23:51;;;;;;;14.70;12.02;;;4.50;82.40;;;;;;5093970;28;20316;-61
2021/03/20 06:26:26;;;;;;;13.88;11.57;;;4.80;78.70;;;;;;5090898;28;20517;-60
2021/03/20 06:29:05;;;;;;;17.17;12.80;;;4.70;79.40;;;;;;5093428;28;20244;-60
2021/03/20 06:31:37;;;;;;;14.75;11.70;;;4.20;80.20;;;;;;5088657;28;20230;-61
2021/03/20 06:34:27;;;;;;;13.52;12.23;;;4.40;79.90;;;;;;5097341;28;20259;-61
2021/03/20 06:37:20;;;;;;;13.90;12.20;;;5.20;77.70;;;;;;5089174;28;20203;-60
2021/03/20 06:40:13;;;;;;;12.25;10.70;;;5.10;75.90;;;;;;5091183;28;20637;-60
2021/03/20 06:42:40;;;;;;;12.32;11.13;;;4.80;78.00;;;;;;5095418;28;20205;-59
2021/03/20 06:45:17;;;;;;;10.60;9.52;;;4.20;80.90;;;;;;5088834;28;20255;-59
2021/03/20 06:47:51;;;;;;;13.55;11.63;;;3.90;80.70;;;;;;5091664;28;20217;-60
2021/03/20 06:50:23;;;;;;;15.27;11.88;;;4.00;79.00;;;;;;5084745;28;20237;-60
2021/03/20 06:52:57;;;;;;;10.93;9.93;;;4.30;80.60;;;;;;5095008;28;20204;-61
2021/03/20 06:55:46;;;;;;;11.77;10.50;;;5.20;80.10;;;;;;5087186;28;20205;-60
2021/03/20 06:58:22;;;;;;;12.38;10.18;;;5.30;79.00;;;;;;5095325;28;20505;-59
2021/03/20 07:00:49;;;;;;;11.13;9.90;;;5.20;76.20;;;;;;5089779;28;20591;-60
2021/03/20 07:03:38;;;;;;;11.23;9.55;;;5.40;77.30;;;;;;5090342;28;20208;-61
2021/03/20 07:06:27;;;;;;;15.68;10.35;;;5.00;76.40;;;;;;5094241;28;20201;-61
2021/03/20 07:08:58;;;;;;;11.60;9.70;;;4.70;77.90;;;;;;5096895;28;20205;-61
2021/03/20 07:11:33;;;;;;;11.05;9.88;;;4.30;79.40;;;;;;5092093;28;20256;-62
2021/03/20 07:14:34;;;;;;;10.30;9.20;;;3.80;83.40;;;;;;5088599;28;20512;-62
2021/03/20 07:17:03;;;;;;;10.35;9.23;;;5.60;77.30;;;;;;5091125;28;20202;-60
2021/03/20 07:19:30;;;;;;;10.38;8.55;;;5.30;74.40;;;;;;5093045;28;20202;-61
2021/03/20 07:21:56;;;;;;;10.80;7.75;;;4.90;74.10;;;;;;5093713;28;20469;-61
2021/03/20 07:24:38;;;;;;;14.05;9.57;;;4.20;77.30;;;;;;5091739;28;20217;-62
2021/03/20 07:27:14;;;;;;;10.00;8.57;;;3.60;81.50;;;;;;5091619;28;20224;-62
2021/03/20 07:29:51;;;;;;;10.88;8.88;;;3.30;82.90;;;;;;5092337;28;20216;-62
2021/03/20 07:32:24;;;;;;;10.55;8.68;;;3.00;85.40;;;;;;5095340;28;20238;-61
2021/03/20 07:34:55;;;;;;;9.30;8.05;;;2.30;85.90;;;;;;5093038;28;20352;-61
2021/03/20 07:37:21;;;;;;;11.10;8.05;;;2.10;87.30;;;;;;5090494;28;20564;-61
2021/03/20 07:40:00;;;;;;;6.97;6.13;;;1.30;89.40;;;;;;5092577;28;20208;-61
2021/03/20 07:42:34;;;;;;;11.10;7.82;;;1.20;91.20;;;;;;5091352;28;20210;-62
2021/03/20 07:45:18;;;;;;;12.98;9.00;;;1.00;90.70;;;;;;5092233;28;20451;-64
2021/03/20 07:47:54;;;;;;;8.70;6.97;;;1.20;92.30;;;;;;5089017;28;20213;-63
2021/03/20 07:50:24;;;;;;;14.63;7.22;;;1.40;91.00;;;;;;5089578;28;20201;-62
2021/03/20 07:53:21;;;;;;;7.43;6.65;;;1.40;90.10;;;;;;5094018;28;20206;-63
2021/03/20 07:56:05;;;;;;;7.70;6.95;;;1.70;90.50;;;;;;5094648;28;20240;-63
2021/03/20 07:59:07;;;;;;;11.93;7.95;;;1.90;88.50;;;;;;5091730;28;20198;-64
2021/03/20 08:01:36;;;;;;;15.68;8.05;;;1.90;89.00;;;;;;5092066;28;20225;-63
2021/03/20 08:04:07;;;;;;;7.97;6.30;;;2.00;89.40;;;;;;5092685;28;20207;-64
2021/03/20 08:06:35;;;;;;;12.55;7.57;;;2.90;87.00;;;;;;5092973;28;20208;-63
2021/03/20 08:09:23;;;;;;;17.13;7.18;;;4.60;82.40;;;;;;5095407;28;20209;-61
2021/03/20 08:11:57;;;;;;;7.15;6.40;;;5.30;74.20;;;;;;5096026;28;20285;-63
2021/03/20 08:14:30;;;;;;;8.55;6.78;;;6.00;72.10;;;;;;5090478;28;20204;-63
2021/03/20 08:16:58;;;;;;;7.35;6.78;;;5.90;75.30;;;;;;5093086;28;20197;-62
2021/03/20 08:19:25;;;;;;;9.13;8.23;;;5.10;74.10;;;;;;5087548;28;20206;-63
2021/03/20 08:22:13;;;;;;;9.02;8.00;;;5.30;76.10;;;;;;5093019;28;20206;-62
2021/03/20 08:25:24;;;;;;;10.90;7.70;;;6.30;71.30;;;;;;5092373;28;20198;-62
2021/03/20 08:28:28;;;;;;;11.60;9.00;;;8.90;62.70;;;;;;5090967;28;20209;-63
2021/03/20 08:31:07;;;;;;;9.10;7.22;;;10.50;54.60;;;;;;5076502;28;20215;-63
2021/03/20 08:33:55;;;;;;;10.90;9.05;;;10.30;50.50;;;;;;5090367;28;20215;-63
2021/03/20 08:36:37;;;;;;;9.70;8.68;;;8.40;55.60;;;;;;5081025;28;20311;-61
2021/03/20 08:39:35;;;;;;;8.68;7.80;;;9.70;60.60;;;;;;5084077;28;20511;-63
2021/03/20 08:42:20;;;;;;;11.50;8.88;;;11.30;50.10;;;;;;5081481;28;20393;-62
2021/03/20 08:45:09;;;;;;;10.48;8.70;;;8.70;61.20;;;;;;5087175;28;20512;-62
2021/03/20 08:48:12;;;;;;;12.32;10.10;;;9.70;57.70;;;;;;5078100;28;20211;-63
2021/03/20 08:50:57;;;;;;;13.68;10.10;;;9.40;58.50;;;;;;5086161;28;20265;-63
2021/03/20 08:53:29;;;;;;;9.80;8.02;;;8.40;57.90;;;;;;5076038;28;20210;-63
2021/03/20 08:56:11;;;;;;;8.98;7.95;;;8.60;64.00;;;;;;5077016;28;20207;-63
2021/03/20 08:58:59;;;;;;;8.10;7.35;;;9.00;59.00;;;;;;5089715;28;20539;-65
2021/03/20 09:01:43;;;;;;;7.40;6.70;;;7.30;59.20;;;;;;5074413;28;20207;-62
2021/03/20 09:04:18;;;;;;;7.57;6.30;;;5.60;66.90;;;;;;5080229;28;20545;-63
2021/03/20 09:06:55;;;;;;;7.50;6.15;;;4.60;70.20;;;;;;5093902;28;20208;-63
2021/03/20 09:09:37;;;;;;;10.90;7.65;;;4.30;75.70;;;;;;5077466;28;20210;-63
2021/03/20 09:12:29;;;;;;;12.45;7.43;;;4.00;79.10;;;;;;5079543;28;20314;-64
2021/03/20 09:14:56;;;;;;;10.32;6.85;;;3.60;79.40;;;;;;5091226;28;20205;-63
2021/03/20 09:17:30;;;;;;;11.18;6.43;;;3.10;79.70;;;;;;5092569;28;20203;-65
2021/03/20 09:20:26;;;;;;;9.60;6.93;;;3.00;83.60;;;;;;5085143;28;20267;-64
2021/03/20 09:22:54;;;;;;;12.20;7.47;;;3.20;85.40;;;;;;5078748;28;20334;-64
2021/03/20 09:25:39;;;;;;;13.93;5.70;;;4.90;77.00;;;;;;5079835;28;20233;-63
2021/03/20 09:28:16;;;;;;;7.32;6.63;;;5.00;72.00;;;;;;5082103;28;20464;-64
2021/03/20 09:30:57;;;;;;;7.25;6.50;;;4.40;75.20;;;;;;5091884;28;20231;-64
2021/03/20 09:33:28;;;;;;;10.13;5.20;;;3.90;75.00;;;;;;5083844;28;20554;-65
2021/03/20 09:36:02;;;;;;;6.70;5.47;;;3.80;72.90;;;;;;5081493;28;20240;-64
2021/03/20 09:38:34;;;;;;;6.68;6.13;;;3.30;76.90;;;;;;5086973;28;20295;-65
2021/03/20 09:41:13;;;;;;;5.78;5.22;;;3.10;78.70;;;;;;5098663;28;20248;-65
2021/03/20 09:43:53;;;;;;;6.07;5.10;;;2.90;82.50;;;;;;5090477;28;20418;-65
2021/03/20 09:46:41;;;;;;;5.60;5.20;;;3.10;78.20;;;;;;5083263;28;20204;-64
2021/03/20 09:49:08;;;;;;;9.50;5.72;;;3.30;75.30;;;;;;5094420;28;20207;-64
2021/03/20 09:52:06;;;;;;;5.65;5.00;;;3.10;73.80;;;;;;5090380;28;20379;-65
2021/03/20 09:54:40;;;;;;;6.78;6.28;;;2.60;74.60;;;;;;5075832;28;20210;-64
2021/03/20 09:57:07;;;;;;;6.25;4.93;;;2.60;80.30;;;;;;5081057;28;20693;-64
2021/03/20 09:59:45;;;;;;;30.90;6.22;;;2.80;79.00;;;;;;5079195;28;20202;-64
2021/03/20 10:02:32;;;;;;;4.63;4.32;;;2.70;74.50;;;;;;5082556;28;20233;-64
2021/03/20 10:05:04;;;;;;;4.30;4.00;;;2.00;76.00;;;;;;5087326;28;20540;-64
2021/03/20 10:07:35;;;;;;;6.53;4.10;;;1.40;77.00;;;;;;5076519;28;20203;-65
2021/03/20 10:10:11;;;;;;;4.45;4.05;;;1.30;81.20;;;;;;5097097;28;20539;-63
2021/03/20 10:12:43;;;;;;;7.40;4.78;;;1.30;82.60;;;;;;5080168;28;20459;-65
2021/03/20 10:15:12;;;;;;;5.95;4.65;;;1.50;83.80;;;;;;5085584;28;20210;-63
2021/03/20 10:18:11;;;;;;;4.80;4.38;;;1.00;82.10;;;;;;5086112;28;20214;-64
2021/03/20 10:20:56;;;;;;;5.15;4.70;;;1.10;81.60;;;;;;5088858;28;20530;-63
2021/03/20 10:23:43;;;;;;;6.00;4.72;;;1.00;81.60;;;;;;5088011;28;20210;-64
2021/03/20 10:26:36;;;;;;;6.65;4.60;;;0.80;82.30;;;;;;5090789;28;20222;-64
2021/03/20 10:29:28;;;;;;;8.88;4.70;;;1.10;84.90;;;;;;5090696;28;20202;-64
2021/03/20 10:32:06;;;;;;;4.97;4.50;;;1.80;78.40;;;;;;5084817;28;20540;-64
2021/03/20 10:34:46;;;;;;;4.95;4.55;;;2.60;77.30;;;;;;5081638;28;20422;-64
2021/03/20 10:37:14;;;;;;;8.55;4.40;;;2.80;74.40;;;;;;5087054;28;20532;-64
2021/03/20 10:39:44;;;;;;;6.93;4.63;;;2.90;73.70;;;;;;5087089;28;20207;-64
2021/03/20 10:42:17;;;;;;;9.30;5.20;;;3.00;75.10;;;;;;5078823;28;20221;-64
2021/03/20 10:44:46;;;;;;;4.88;4.30;;;2.90;76.20;;;;;;5083560;28;20212;-65
2021/03/20 10:47:12;;;;;;;4.88;4.03;;;2.40;75.20;;;;;;5092506;28;20199;-64
2021/03/20 10:49:44;;;;;;;5.70;4.25;;;2.20;74.10;;;;;;5083080;28;20217;-65
2021/03/20 10:52:18;;;;;;;14.27;5.15;;;2.00;76.90;;;;;;5078977;28;20230;-64
2021/03/20 10:54:49;;;;;;;4.40;4.10;;;2.20;75.90;;;;;;5077715;28;20198;-63
2021/03/20 10:57:20;;;;;;;6.60;4.75;;;2.10;76.30;;;;;;5077298;28;20238;-64
2021/03/20 10:59:48;;;;;;;5.55;4.32;;;2.10;78.00;;;;;;5086049;28;20203;-64
2021/03/20 11:02:23;;;;;;;5.55;5.05;;;2.20;76.30;;;;;;5078991;28;20210;-64
2021/03/20 11:04:52;;;;;;;8.50;5.30;;;2.50;76.10;;;;;;5089551;28;20233;-64
2021/03/20 11:07:22;;;;;;;5.72;4.40;;;2.70;76.50;;;;;;5080457;28;20252;-63
2021/03/20 11:09:50;;;;;;;5.90;4.07;;;2.10;76.80;;;;;;5076692;28;20229;-63
2021/03/20 11:12:28;;;;;;;5.07;3.90;;;1.90;78.40;;;;;;5083135;28;20230;-67
2021/03/20 11:14:57;;;;;;;3.67;3.47;;;2.10;75.80;;;;;;5087283;28;20253;-65
2021/03/20 11:17:29;;;;;;;5.75;3.58;;;2.00;73.20;;;;;;5096196;28;20206;-64
2021/03/20 11:20:06;;;;;;;5.70;3.50;;;2.50;76.40;;;;;;5089987;28;20285;-64
2021/03/20 11:22:37;;;;;;;4.90;4.10;;;2.40;71.80;;;;;;5090902;28;20241;-64
2021/03/20 11:25:08;;;;;;;5.80;5.15;;;2.20;72.80;;;;;;5083322;28;20237;-64
2021/03/20 11:27:39;;;;;;;5.60;4.43;;;2.40;76.00;;;;;;5088564;28;21430;-64
2021/03/20 11:30:16;;;;;;;3.78;3.42;;;2.10;76.60;;;;;;5076395;28;20208;-63
2021/03/20 11:32:46;;;;;;;8.88;3.92;;;1.80;72.70;;;;;;5092691;28;20230;-65
2021/03/20 11:35:25;;;;;;;4.90;4.20;;;1.60;71.80;;;;;;5082193;28;20238;-63
2021/03/20 11:37:53;;;;;;;6.03;3.75;;;1.60;73.90;;;;;;5081973;28;20210;-65
2021/03/20 11:40:38;;;;;;;9.77;3.85;;;1.60;74.50;;;;;;5083584;28;20199;-63
2021/03/20 11:43:23;;;;;;;4.00;3.70;;;1.50;71.70;;;;;;5085709;28;20199;-65
2021/03/20 11:45:52;;;;;;;4.35;4.05;;;1.60;76.70;;;;;;5090022;28;20674;-64
2021/03/20 11:48:36;;;;;;;4.38;4.05;;;2.10;76.00;;;;;;5079123;28;20206;-64
2021/03/20 11:51:07;;;;;;;4.60;4.30;;;2.60;74.70;;;;;;5088515;28;20325;-63
2021/03/20 11:53:36;;;;;;;13.30;5.20;;;3.30;74.50;;;;;;5082733;28;20211;-63
2021/03/20 11:56:17;;;;;;;5.40;4.90;;;3.30;75.10;;;;;;5077513;28;20299;-64
2021/03/20 11:58:56;;;;;;;5.03;4.53;;;3.70;73.20;;;;;;5080641;28;20211;-64
2021/03/20 12:01:27;;;;;;;4.28;4.07;;;4.00;71.60;;;;;;5082742;28;20217;-65
2021/03/20 12:03:57;;;;;;;4.03;3.72;;;2.90;69.50;;;;;;5082949;28;20295;-63
2021/03/20 12:06:27;;;;;;;9.35;4.20;;;2.20;76.10;;;;;;5081066;28;20318;-64
2021/03/20 12:08:58;;;;;;;4.78;3.63;;;2.00;80.70;;;;;;5088669;28;20206;-63
2021/03/20 12:11:45;;;;;;;4.00;3.65;;;2.10;84.80;;;;;;5076674;28;20231;-63
2021/03/20 12:14:38;;;;;;;5.32;4.93;;;2.10;82.00;;;;;;5068726;28;20534;-64
2021/03/20 12:17:08;;;;;;;4.18;3.55;;;2.30;82.80;;;;;;5081318;28;20604;-63
2021/03/20 12:20:04;;;;;;;4.80;4.43;;;2.20;79.60;;;;;;5082523;28;20418;-64
2021/03/20 12:22:51;;;;;;;5.22;4.82;;;2.40;77.80;;;;;;5082416;28;20331;-63
2021/03/20 12:25:30;;;;;;;4.78;4.30;;;2.80;75.40;;;;;;5090519;28;20205;-64
2021/03/20 12:28:24;;;;;;;4.38;3.75;;;3.50;75.90;;;;;;5081371;28;20206;-65
2021/03/20 12:31:08;;;;;;;8.68;5.25;;;3.50;71.00;;;;;;5078853;28;20501;-63
2021/03/20 12:33:56;;;;;;;4.35;3.95;;;3.30;70.10;;;;;;5084427;28;20223;-65
2021/03/20 12:36:40;;;;;;;12.10;4.70;;;3.20;74.70;;;;;;5087242;28;20305;-64
2021/03/20 12:39:09;;;;;;;4.97;4.57;;;3.40;72.40;;;;;;5094128;28;20267;-63
2021/03/20 12:41:37;;;;;;;7.90;4.68;;;3.50;69.60;;;;;;5087523;28;20401;-64
2021/03/20 12:44:15;;;;;;;6.45;4.60;;;3.80;71.70;;;;;;5079880;28;20531;-63
2021/03/20 12:46:45;;;;;;;6.82;3.97;;;4.30;70.70;;;;;;5080905;28;20326;-64
2021/03/20 12:49:17;;;;;;;4.72;3.92;;;4.20;67.70;;;;;;5092205;28;20196;-64
2021/03/20 12:51:44;;;;;;;3.80;3.47;;;4.30;67.00;;;;;;5086810;28;20229;-64
2021/03/20 12:54:20;;;;;;;5.43;4.07;;;3.90;63.40;;;;;;5087306;28;20234;-64
2021/03/20 12:56:47;;;;;;;7.90;4.78;;;3.60;62.20;;;;;;5092251;28;20216;-63
2021/03/20 12:59:14;;;;;;;4.68;4.15;;;3.70;64.60;;;;;;5095813;28;20208;-64
2021/03/20 13:01:41;;;;;;;6.50;4.10;;;3.90;68.40;;;;;;5091991;28;20246;-64
2021/03/20 13:04:15;;;;;;;5.22;4.82;;;3.80;66.60;;;;;;5095784;28;20275;-64
2021/03/20 13:06:42;;;;;;;10.00;5.18;;;3.70;64.50;;;;;;5079264;28;20274;-64
2021/03/20 13:09:09;;;;;;;7.00;5.80;;;3.80;66.60;;;;;;5093403;28;20521;-67
2021/03/20 13:11:36;;;;;;;5.40;5.00;;;3.80;70.20;;;;;;5080830;28;20241;-65
2021/03/20 13:14:05;;;;;;;6.97;5.35;;;3.60;67.70;;;;;;5089885;28;20239;-63
2021/03/20 13:16:34;;;;;;;7.65;5.10;;;3.50;69.60;;;;;;5089617;28;20209;-63
2021/03/20 13:19:03;;;;;;;5.00;4.55;;;3.30;71.80;;;;;;5082263;28;20676;-63
2021/03/20 13:21:31;;;;;;;10.02;4.95;;;3.00;74.70;;;;;;5088949;28;20215;-64
2021/03/20 13:23:59;;;;;;;4.75;4.20;;;3.00;73.70;;;;;;5088977;28;20236;-64
2021/03/20 13:26:28;;;;;;;4.07;3.88;;;2.70;71.20;;;;;;5085816;28;20229;-64
2021/03/20 13:28:56;;;;;;;5.80;4.72;;;2.70;69.20;;;;;;5087437;28;20498;-63
2021/03/20 13:31:23;;;;;;;5.40;4.90;;;2.60;70.60;;;;;;5075462;28;20232;-63